Timeline UpdatesTrip UpdatesNews PostsPvt PostsTravel TipsAdmin PostsConv PostsFollowed PostsChat RequestsBlog PostsPNR Posts

Disclaimer
Search
 
 
Fri Jul 25, 2014 14:28:11 ISTHomeTrainsΣChainsAtlasPNRForumGalleryNewsFAQTripsMembersLoginFeedback
Latest...
-
Tue Feb 11, 2014 (11:47AM)
⇐ Return Journey: Train# 13020

13019/Bagh Express

Mar 23 2014 (4:38PM)
Change Departure Station:
Change Arrival Station:
Post a Train Travel TipPost a Train Travel Tip **new
Post a Comment/Question/Picture/VideoPost a Comment/Question/Picture/Video
Pantry/Catering
✕ NO Pantry Car
✓ Catering Avbl
Loco/Rake Reversals
RMU/Rampur Junction (3); LJN/Lucknow Junction (6);
RSA - Rake Sharing
Rake/Coach Composition
LOCO-SLR-GS-GS-GS-S1-S2-S3-S4-S5-S6-S7-B1-A1-GS-GS-SLR
Loco
HWH WAP-4 (HWH-BJU); IZN WDP-4D (BJU-KGM)
News    PNR    Forum    Time-Table    Availability    Fare Chart    Map    Arr/Dep History    Trips    Gallery    ΣChains    X/O    Timeline    
Travel Time: 35h 45m    65 halts    Distance: 1519 km    Avg Speed: 42 km/hr
Type: Mail/Express
Zone: ER/Eastern
Departs @ 21:45 (Avg 16m late)
Platform# 11
SMTWTFS
Kolkata Howrah Junction/HWH 
Arrives @ 09:30 +2 nights (Avg 1h 28m late)
Platform# 1
SMTWTFS
Kathgodam/KGM 

65 halts. 276 intermediate Stations between Kolkata Howrah Junction and Kathgodam

Show ALL intermediate Stations  Show Old Time-Table

#CodeStation NameX/OArrivesAvgDepartsAvgHaltPFDay#KmSpeedElevZoneAddress
1HWH»Kolkata Howrah Junction (23)»  -21:45+161110.05910mERHowrah 711101, West Bengal
2SRPSerampore (4)X  22:05+2322:06+281m--119.74011mERdist - hooghly, West Bengal
3BDCBandel Junction (7)  22:36+2122:41+215m--139.67914mERdist - HOOGHLY, West Bengal
4BWNBarddhaman Junction (8)X  23:32+2723:37+265m21106.87834mERDist - Barddhaman, West Bengal
5DGRDurgapur (5)  00:26+3100:28+312m32170.47971mERDurgapur, West Bengal
6UDLAndal Junction (6)X  00:41+3100:43+312m--2187.45586mERAndal, West Bengal
7RNGRaniGanj (4)  00:51+3400:53+342m22194.74392mERRaniganj, West Bengal
8ASNAsansol Junction (7)XO  01:18+2801:23+325m--2212.863113mERDist - bardhaman, West Bengal
9CRJChittaranjan (3)X  01:47+4201:48+431m32237.985182mERMihijam, Jharkhand
10MDPMadhupur Junction (4)X  02:28+5302:33+525m--2294.367254mER06432-224478, Jharkhand
11JSMEJasidih Junction (5)X  02:59+5603:04+565m22323.466271mERJasidih, Jharkhand
12STLSimultala (2)XO  03:27+5003:28+501m--2348.820247mERSimultala, Bihar
13JAJJhajha (4)  04:25+2604:35+2610m--2367.587143mECRJhajha, Bihar
14JMUJamui (3)X  04:53+3304:55+342m--2393.56681mECRState Highway 72, Bihar
15KIULKiul Junction (5)  05:20+4105:25+415m--2420.81453mECRDist. Lakhisarai, Bihar
16LKRLuckeesarai Junction (2)  05:31+4205:33+422m22422.12852mECRLakhisarai, Bihar
17BRYABarhiya (3)XO  06:05+3206:07+332m--2437.22047mECRBarahiya, Bihar
18DKGSDinkar Gram Simaria (3)  06:55+4906:56+531m--2453.62147mECRSimaria Station, Bihar
19BJUBarauni Junction (9)X07:13+4007:33+4520m82459.75249mECRBegusarai, Bihar
20BCABachwara Junction  07:52+5107:54+532m--2476.03949mECRBegusarai, Bihar
21DSSDalsingh Sarai (2)X  08:11+5108:13+512m12487.05949mECR06278-221238, Bihar
22NAZJNazirGanj  08:21+5108:23+522m--2494.95451mECRNazirGanj, Bihar
23UJPUjiarpur (2)X  08:30+4908:32+502m--2501.23251mECRSamastipur, Bihar
24SPJSamastipur Junction (9)X  08:49+5508:55+556m92510.23455mECRSamastipur, Bihar
25KPGMKarpurigram (3)  09:06+1:0109:08+1:012m--2516.56351mECRState Highway 49, Bihar
26KRBPKhudiram B Pusa  09:15+1:0209:17+1:032m--2523.86752mECRDistt. Samastipur, Bihar
27DOLDholi (2)X  09:29+1:0609:31+1:082m--2537.25252mECRDistt. Muzaffarpur, Bihar
28MFPMuzaffarpur Junction (6)X  10:00+1:1710:10+1:2210m42562.36557mECRMuzaffarpur, Bihar
29GRLGoraul (2)  10:34+1:4310:36+1:462m22588.26257mECRVAISHALI, Bihar
30BNRBhagwanpur (2)  10:44+1:4810:46+1:542m22596.54960mECRBhagwanpur, Bihar
31HJPHajipur Junction (3)X  11:10+2:0011:15+2:095m--2616.23355mECR06224-272230, Bihar
32SEESonpur Junction (4)  11:25+2:1011:35+2:0610m--2621.75756mECRSaran, Bihar
33NYONayagaon (2)  11:47+2:1011:49+2:122m--2633.05553mECRNayagaon Sarai, Bihar
34DGADighwara (2)XO  12:02+2:1312:04+2:172m--2644.83060mECR06158-281240, Bihar
35CPRChhapra Junction (6)X  13:05+2:1413:15+2:1510m142675.76858mNERDistt: Saran, Bihar
36DDPDaudpur (2)  13:32+2:2013:34+2:212m--2695.05759mNERChhapra, Bihar
37EKMAEkma (3)  13:43+2:2213:45+2:242m--2703.64464mNERSaran, Bihar
38CWChainwa (2)X  13:55+2:2513:57+2:272m--2711.04963mNERSiwan, Bihar
39DDADuraundha Junction (3)O  14:07+2:2714:09+2:282m12719.23064mNERDistt: Siwan, Bihar
40SVSiwan Junction (4)X  14:45+2:1514:50+2:165m--2737.07770mNERSiwan, Bihar
41ZRDEJiradei (2)X  14:58+2:2015:00+2:212m--2747.36069mNERSiwan, Bihar
42MWMairwa (2)X  15:11+2:1915:13+2:192m--2758.24973mNERMairwa, Bihar
43BTKBankata (2)  15:21+2:2315:23+2:242m--2764.75473mNERDeoria, Uttar Pradesh
44BHTRBhatpar Rani (2)  15:32+2:2415:34+2:242m--2772.84873mNERDeoria, Uttar Pradesh
45BTTBhatni Junction (5)X  15:50+2:2415:55+2:235m--2785.76973mNERDeoria, Uttar Pradesh
46DEOSDeoria Sadar (3)X  16:13+2:2816:15+2:332m22806.44479mNERDeoria- 274001, Uttar Pradesh
47CCChauri Chaura (2)  16:49+2:2716:51+2:282m--2831.23084mNERGorakhpur- PinCode:- 273201, Uttar Pradesh
48GKPGorakhpur Junction (10)X  17:40+2:3718:00+2:4220m22855.65784mNERGorakhpur 273001, Uttar Pradesh
49KLDKhalilabad (3)X  18:36+2:4918:38+2:492m--2889.56686mNERKhalilabad- 272175, Uttar Pradesh
50BSTBasti (4)X  19:05+2:5119:10+2:525m12919.07190mNERBasti 272001, Uttar Pradesh
51GDGonda Junction (3)X  20:25+2:5220:35+2:5110m121007.579110mNERGonda 271001, Uttar Pradesh
52JLDJarwal Road (2)  21:10+3:0121:12+3:012m121053.654112mNERBehraich, Uttar Pradesh
53BBKBarabanki Junction (4)XO  22:00+3:0422:02+3:062m221096.840122mNRPin-225001, Uttar Pradesh
54BNZBadshahnagar (2)  22:39+3:0422:40+3:051m121121.411116mNERLucknow, Uttar Pradesh
55LCLucknow City (3)X  23:15-23:17-2m121127.76127mNERLucknow, Uttar Pradesh
56LJNLucknow Junction (6)X00:01+2:1100:25+2:1524m131132.467126mNERLucknow, Uttar Pradesh
57HRIHardoi (5)X01:56+2:3701:58+2:382m--31233.567146mNRHardoi, Uttar Pradesh
58ROZARoza Junction (4)X  02:48+2:3102:50+2:432m--31289.124156mNRShahjahanpur, Uttar Pradesh
59SPNShahjahanpur Junction (3)X  03:08+2:3603:13+2:365m--31296.472156mNRShahjahanpur, Uttar Pradesh
60BEBareilly Junction (4)X  04:12+2:4004:20+2:448m231366.950174mNRBareilly, Uttar Pradesh
61RMURampur Junction (3)05:35+2:2306:00+2:1725m131430.062190mNRRampur, Uttar Pradesh
62BLQRBilaspur Road (1)  06:26+2:3406:27+2:351m131456.851196mNERRampur, Uttar Pradesh
63RUPCRudrapur City (2)  06:48+2:3106:53+2:315m131474.824208mNERUdham Singh Nagar, Uttarakhand
64HLDDHaldi Road  07:28+2:1207:30+2:142m--31488.913236mNERNH 87, Uttarakhand
65LKULal Kuan Junction (4)X  08:05+1:5508:10+2:045m131496.519262mNERLalkuan, Uttarakhand
66HDWHaldwani (3)  09:01+1:4309:03+1:482m131512.913443mNERHaldwani, Uttarakhand
67KGM•Kathgodam (3)•  09:30+1:28-131518.7-520mNERKathgodam, Uttarakhand
Scroll to Top
Scroll to Bottom